Time;durP1;ratioP1;P1;durP2;ratioP2;P2;SDS_P1;SDS_P2;PMS_P1;PMS_P2;Temp;Humidity;BMP_temperature;BMP_pressure;BME280_temperature;BME280_humidity;BME280_pressure;Samples;Min_cycle;Max_cycle;Signal;HPM_P1;HPM_P2
2022/12/25 00:01:48;;;;;;;2.67;1.77;;;;;;;9.32;100.00;100415.63;5020394;28;20188;-73
2022/12/25 00:04:13;;;;;;;3.03;1.90;;;;;;;9.31;100.00;100408.75;5015909;28;20208;-73
2022/12/25 00:06:38;;;;;;;3.50;1.80;;;;;;;9.33;100.00;100413.91;5017006;28;20240;-73
2022/12/25 00:09:04;;;;;;;3.83;1.73;;;;;;;9.33;100.00;100411.34;5003309;28;20618;-73
2022/12/25 00:11:29;;;;;;;2.40;1.87;;;;;;;9.32;100.00;100414.78;5016121;28;20196;-74
2022/12/25 00:13:55;;;;;;;3.73;2.00;;;;;;;9.32;100.00;100419.94;5022633;28;20187;-73
2022/12/25 00:16:23;;;;;;;3.70;1.90;;;;;;;9.32;100.00;100420.78;5019630;28;20208;-74
2022/12/25 00:18:50;;;;;;;2.27;1.50;;;;;;;9.31;100.00;100419.06;5020862;28;20931;-73
2022/12/25 00:21:16;;;;;;;2.50;1.87;;;;;;;9.30;100.00;100410.47;5019113;28;20199;-74
2022/12/25 00:23:42;;;;;;;3.10;2.57;;;;;;;9.28;100.00;100419.09;5019512;28;20608;-74
2022/12/25 00:26:11;;;;;;;3.90;2.43;;;;;;;9.26;100.00;100403.59;5019413;28;20219;-74
2022/12/25 00:28:37;;;;;;;3.27;2.00;;;;;;;9.25;100.00;100396.69;5016318;28;20191;-73
2022/12/25 00:31:11;;;;;;;2.40;2.10;;;;;;;9.27;100.00;100399.31;5020062;28;20656;-73
2022/12/25 00:33:39;;;;;;;2.50;2.10;;;;;;;9.25;100.00;100406.19;5018931;28;20264;-73
2022/12/25 00:36:05;;;;;;;4.07;2.40;;;;;;;9.26;100.00;100397.56;5019649;28;20593;-72
2022/12/25 00:38:32;;;;;;;1.90;1.70;;;;;;;9.27;100.00;100394.13;5016978;28;20701;-73
2022/12/25 00:40:57;;;;;;;4.20;2.50;;;;;;;9.29;100.00;100400.16;5017217;28;20810;-73
2022/12/25 00:43:23;;;;;;;3.37;2.33;;;;;;;9.29;100.00;100400.16;5021834;28;20241;-72
2022/12/25 00:45:59;;;;;;;2.10;1.80;;;;;;;9.32;100.00;100394.97;5025169;28;20606;-73
2022/12/25 00:48:25;;;;;;;3.30;2.10;;;;;;;9.33;100.00;100393.25;5028509;28;20183;-73
2022/12/25 00:50:55;;;;;;;3.53;2.47;;;;;;;9.34;100.00;100403.56;5024388;28;20245;-73
2022/12/25 00:53:22;;;;;;;2.53;2.10;;;;;;;9.35;100.00;100400.13;5020341;28;20242;-73
2022/12/25 00:56:05;;;;;;;3.10;2.20;;;;;;;9.36;100.00;100386.34;5020558;28;20726;-73
2022/12/25 00:58:31;;;;;;;3.37;2.10;;;;;;;9.36;100.00;100396.69;5008419;28;21053;-73
2022/12/25 01:00:57;;;;;;;2.63;2.30;;;;;;;9.36;100.00;100391.53;5023369;28;20284;-73
2022/12/25 01:03:23;;;;;;;4.20;2.40;;;;;;;9.35;100.00;100394.13;5022455;28;20388;-73
2022/12/25 01:06:00;;;;;;;3.80;2.00;;;;;;;9.32;100.00;100394.13;5018484;28;20227;-74
2022/12/25 01:08:27;;;;;;;4.30;2.50;;;;;;;9.29;100.00;100400.16;5018034;28;20244;-73
2022/12/25 01:10:58;;;;;;;3.63;2.50;;;;;;;9.28;100.00;100409.63;5022008;28;20206;-73
2022/12/25 01:13:23;;;;;;;2.97;2.30;;;;;;;9.29;100.00;100413.06;5015201;28;20206;-72
2022/12/25 01:15:51;;;;;;;3.87;2.10;;;;;;;9.30;100.00;100409.63;5020585;28;20209;-73
2022/12/25 01:18:16;;;;;;;3.33;2.30;;;;;;;9.31;100.00;100406.16;5014168;28;20679;-73
2022/12/25 01:20:42;;;;;;;3.23;2.50;;;;;;;9.31;100.00;100408.75;5014050;28;20200;-73
2022/12/25 01:23:07;;;;;;;3.80;2.40;;;;;;;9.32;100.00;100413.03;5015898;28;20192;-72
2022/12/25 01:25:32;;;;;;;3.77;2.40;;;;;;;9.31;100.00;100406.16;5004110;28;20220;-73
2022/12/25 01:27:58;;;;;;;2.47;2.10;;;;;;;9.31;100.00;100406.16;5018907;28;20721;-73
2022/12/25 01:30:23;;;;;;;3.33;1.97;;;;;;;9.29;100.00;100406.16;5018631;28;20188;-72
2022/12/25 01:32:48;;;;;;;2.30;2.10;;;;;;;9.29;100.00;100400.16;5017421;28;20270;-73
2022/12/25 01:35:14;;;;;;;3.33;2.20;;;;;;;9.26;100.00;100403.59;5021074;28;20190;-73
2022/12/25 01:37:39;;;;;;;2.33;1.90;;;;;;;9.20;100.00;100401.03;5020637;28;20189;-73
2022/12/25 01:40:06;;;;;;;3.13;2.10;;;;;;;9.18;100.00;100405.34;5020259;28;20192;-73
2022/12/25 01:42:31;;;;;;;4.70;2.30;;;;;;;9.17;100.00;100398.44;5033287;28;20195;-73
2022/12/25 01:44:56;;;;;;;3.53;2.33;;;;;;;9.18;100.00;100400.19;5016805;28;20593;-73
2022/12/25 01:47:22;;;;;;;3.37;2.10;;;;;;;9.19;100.00;100412.22;5018660;28;20243;-73
2022/12/25 01:49:49;;;;;;;3.10;2.40;;;;;;;9.20;100.00;100419.09;5021203;28;20796;-72
2022/12/25 01:52:18;;;;;;;2.77;2.00;;;;;;;9.21;100.00;100422.53;5002422;28;20574;-71
2022/12/25 01:54:57;;;;;;;2.80;1.90;;;;;;;9.20;100.00;100418.22;5020488;28;20191;-73
2022/12/25 01:57:29;;;;;;;4.60;2.87;;;;;;;9.17;100.00;100405.31;5031126;28;20203;-73
2022/12/25 01:59:56;;;;;;;4.10;2.20;;;;;;;9.14;100.00;100404.50;5014822;28;20226;-73
2022/12/25 02:02:22;;;;;;;4.43;2.30;;;;;;;9.14;100.00;100403.63;5018426;28;20188;-72
2022/12/25 02:04:53;;;;;;;2.93;2.20;;;;;;;9.13;100.00;100402.75;5023259;28;20211;-72
2022/12/25 02:07:21;;;;;;;3.13;2.27;;;;;;;9.11;100.00;100394.16;5023808;28;20219;-73
2022/12/25 02:09:47;;;;;;;2.30;2.07;;;;;;;9.11;100.00;100394.16;5023723;28;20192;-72
2022/12/25 02:12:19;;;;;;;3.50;2.20;;;;;;;9.14;100.00;100394.16;5023547;28;20238;-73
2022/12/25 02:14:46;;;;;;;4.33;2.30;;;;;;;9.17;100.00;100397.56;5024939;28;20578;-73
2022/12/25 02:17:17;;;;;;;2.77;1.87;;;;;;;9.20;100.00;100389.81;5022609;28;20222;-73
2022/12/25 02:19:56;;;;;;;3.93;2.27;;;;;;;9.21;100.00;100396.72;5021866;28;20730;-73
2022/12/25 02:22:49;;;;;;;3.20;1.90;;;;;;;9.20;100.00;100397.56;5019243;28;20202;-73
2022/12/25 02:25:28;;;;;;;3.33;2.27;;;;;;;9.16;100.00;100394.16;5023738;28;20319;-73
2022/12/25 02:28:05;;;;;;;4.67;2.10;;;;;;;9.11;100.00;100396.75;5023690;28;20614;-72
2022/12/25 02:30:39;;;;;;;2.50;1.80;;;;;;;9.09;100.00;100390.72;5021797;28;20199;-73
2022/12/25 02:36:03;;;;;;;2.90;1.80;;;;;;;9.08;100.00;100390.69;5022531;28;20222;-74
2022/12/25 02:38:34;;;;;;;3.33;2.30;;;;;;;9.09;100.00;100389.84;5022512;28;20198;-72
2022/12/25 02:41:10;;;;;;;3.47;2.10;;;;;;;9.09;100.00;100380.38;5025074;28;20265;-73
2022/12/25 03:06:41;;;;;;;2.23;1.70;;;;;;;8.78;100.00;100339.13;5023581;28;20342;-73
2022/12/25 03:12:01;;;;;;;2.00;1.70;;;;;;;8.75;100.00;100341.69;5026424;28;20198;-74
2022/12/25 03:17:11;;;;;;;4.57;2.10;;;;;;;8.76;100.00;100340.00;5017493;28;20592;-73
2022/12/25 03:27:57;;;;;;;3.83;2.57;;;;;;;8.87;100.00;100348.56;5023700;28;20198;-73
2022/12/25 03:33:24;;;;;;;3.13;2.40;;;;;;;8.84;100.00;100343.41;5029823;28;20206;-73
2022/12/25 03:36:16;;;;;;;2.73;2.43;;;;;;;8.85;100.00;100353.72;5019671;28;20280;-73
2022/12/25 04:37:10;;;;;;;2.80;2.03;;;;;;;8.60;100.00;100298.72;5022344;28;20215;-73
2022/12/25 04:39:35;;;;;;;3.07;1.90;;;;;;;8.53;100.00;100287.56;5022897;28;20195;-73
2022/12/25 04:42:01;;;;;;;2.77;2.10;;;;;;;8.43;100.00;100280.63;5021059;28;20196;-73
2022/12/25 04:44:26;;;;;;;3.70;2.20;;;;;;;8.32;100.00;100272.03;5026745;28;20213;-73
2022/12/25 04:46:51;;;;;;;3.83;2.20;;;;;;;8.19;100.00;100272.03;5025938;28;20291;-73
2022/12/25 04:49:17;;;;;;;3.00;2.23;;;;;;;8.09;100.00;100271.16;5025253;28;20270;-74
2022/12/25 04:51:42;;;;;;;2.67;1.80;;;;;;;7.98;100.00;100278.03;5026967;28;20186;-72
2022/12/25 04:54:08;;;;;;;3.10;1.97;;;;;;;7.88;100.00;100290.03;5022472;28;20191;-73
2022/12/25 04:56:33;;;;;;;2.07;1.87;;;;;;;7.78;100.00;100275.44;5021409;28;20754;-73
2022/12/25 04:58:58;;;;;;;3.03;2.33;;;;;;;7.71;100.00;100278.81;5024073;28;20270;-73
2022/12/25 05:01:24;;;;;;;2.83;2.20;;;;;;;7.66;100.00;100289.13;5029588;28;20676;-74
2022/12/25 05:03:50;;;;;;;2.80;1.80;;;;;;;7.63;100.00;100278.81;5022784;28;20186;-73
2022/12/25 05:06:15;;;;;;;3.17;2.60;;;;;;;7.61;100.00;100275.34;5024129;28;20210;-74
2022/12/25 05:08:40;;;;;;;2.53;2.33;;;;;;;7.58;100.00;100273.66;5024152;28;20600;-73
2022/12/25 05:11:08;;;;;;;3.53;2.10;;;;;;;7.59;100.00;100271.91;5022193;28;20187;-73
2022/12/25 05:13:34;;;;;;;3.90;2.13;;;;;;;7.57;100.00;100274.50;5034462;28;20404;-73
2022/12/25 05:15:59;;;;;;;3.37;2.00;;;;;;;7.59;100.00;100270.22;5020686;28;20686;-74
2022/12/25 05:18:25;;;;;;;2.03;1.93;;;;;;;7.60;100.00;100269.38;5019865;28;20779;-73
2022/12/25 05:20:52;;;;;;;2.87;2.17;;;;;;;7.62;100.00;100274.50;5022170;28;20762;-73
2022/12/25 05:23:18;;;;;;;3.33;2.30;;;;;;;7.63;100.00;100271.06;5027972;28;20214;-73
2022/12/25 05:25:43;;;;;;;3.30;2.03;;;;;;;7.65;100.00;100266.78;5030007;28;20703;-73
2022/12/25 05:28:08;;;;;;;2.70;2.30;;;;;;;7.67;100.00;100254.78;5024296;28;20302;-73
2022/12/25 05:30:34;;;;;;;3.80;2.33;;;;;;;7.69;100.00;100262.50;5026637;28;20593;-73
2022/12/25 05:32:59;;;;;;;2.40;1.97;;;;;;;7.70;100.00;100266.81;5029992;28;20195;-75
2022/12/25 05:35:25;;;;;;;3.20;2.10;;;;;;;7.72;100.00;100255.63;5019924;28;20356;-73
2022/12/25 05:37:50;;;;;;;3.23;2.50;;;;;;;7.76;100.00;100257.38;5018220;28;20207;-74
2022/12/25 05:40:15;;;;;;;2.10;1.90;;;;;;;7.78;100.00;100242.78;5014523;28;20180;-74
2022/12/25 05:42:40;;;;;;;5.00;2.33;;;;;;;7.82;100.00;100246.22;5004747;28;20264;-74
2022/12/25 05:45:06;;;;;;;2.30;2.10;;;;;;;7.84;100.00;100236.78;5019877;28;20207;-74
2022/12/25 05:47:31;;;;;;;3.40;2.27;;;;;;;7.88;100.00;100243.66;5019870;28;20183;-74
2022/12/25 05:49:57;;;;;;;3.03;2.50;;;;;;;7.90;100.00;100239.38;5039755;28;20584;-73
2022/12/25 05:52:22;;;;;;;3.20;2.40;;;;;;;7.90;100.00;100233.34;5021312;28;20203;-75
2022/12/25 05:54:47;;;;;;;2.20;2.00;;;;;;;7.89;100.00;100235.06;5018816;28;20192;-75
2022/12/25 05:57:13;;;;;;;4.10;2.10;;;;;;;7.93;100.00;100241.06;5023312;28;20281;-75
2022/12/25 05:59:38;;;;;;;3.30;2.17;;;;;;;7.96;100.00;100240.22;5021749;28;20188;-74
2022/12/25 06:02:03;;;;;;;2.00;1.60;;;;;;;8.00;100.00;100231.63;5017327;28;20352;-74
2022/12/25 06:04:29;;;;;;;5.37;2.30;;;;;;;8.00;100.00;100227.34;5017883;28;20327;-74
2022/12/25 06:06:54;;;;;;;4.10;1.97;;;;;;;7.99;100.00;100235.94;5018492;28;20321;-74
2022/12/25 06:09:19;;;;;;;3.47;1.97;;;;;;;7.98;100.00;100221.34;5020683;28;20687;-74
2022/12/25 06:11:45;;;;;;;3.00;2.00;;;;;;;7.98;100.00;100221.34;5016992;28;20219;-73
2022/12/25 06:14:15;;;;;;;3.43;2.03;;;;;;;7.97;100.00;100213.59;5018744;28;20187;-74
2022/12/25 06:16:41;;;;;;;2.93;1.97;;;;;;;7.96;100.00;100212.75;5020304;28;20218;-73
2022/12/25 06:19:07;;;;;;;3.27;2.07;;;;;;;7.97;100.00;100216.16;5031340;28;20209;-74
2022/12/25 06:21:32;;;;;;;3.53;2.20;;;;;;;7.98;100.00;100212.72;5017795;28;20198;-73
2022/12/25 06:24:01;;;;;;;4.13;2.20;;;;;;;7.93;100.00;100216.19;5015646;28;20190;-74
2022/12/25 06:26:27;;;;;;;6.40;2.20;;;;;;;7.91;100.00;100212.75;5025097;28;20215;-74
2022/12/25 06:28:52;;;;;;;3.83;2.40;;;;;;;7.90;100.00;100216.19;5016685;28;20198;-74
2022/12/25 06:31:20;;;;;;;2.87;2.20;;;;;;;7.85;100.00;100214.47;5022345;28;20188;-73
2022/12/25 06:33:46;;;;;;;3.27;2.07;;;;;;;7.81;100.00;100217.88;5016168;28;20595;-73
2022/12/25 06:36:15;;;;;;;2.20;2.00;;;;;;;7.81;100.00;100216.16;5018285;28;20212;-73
2022/12/25 06:38:40;;;;;;;4.80;2.63;;;;;;;7.80;100.00;100218.72;5019520;28;20210;-74
2022/12/25 06:41:09;;;;;;;3.77;2.30;;;;;;;7.78;100.00;100222.16;5016852;28;20196;-74
2022/12/25 06:43:34;;;;;;;4.33;2.33;;;;;;;7.80;100.00;100229.88;5018636;28;20737;-74
2022/12/25 06:46:06;;;;;;;3.37;2.37;;;;;;;7.84;100.00;100230.78;5018331;28;20225;-73
2022/12/25 06:48:36;;;;;;;2.37;1.90;;;;;;;7.85;100.00;100228.19;5019218;28;20291;-74
2022/12/25 06:51:03;;;;;;;2.33;1.80;;;;;;;7.88;100.00;100238.50;5024235;28;20285;-73
2022/12/25 06:53:29;;;;;;;3.63;2.10;;;;;;;7.90;100.00;100234.22;5021475;28;20194;-75
2022/12/25 06:56:05;;;;;;;4.03;2.73;;;;;;;7.91;100.00;100232.47;5022368;28;20205;-74
2022/12/25 06:58:31;;;;;;;2.47;2.20;;;;;;;7.90;100.00;100233.34;5021860;28;22048;-73
2022/12/25 07:00:56;;;;;;;2.07;1.87;;;;;;;7.91;100.00;100240.22;5031105;28;20196;-74
2022/12/25 07:03:23;;;;;;;3.20;2.50;;;;;;;7.92;100.00;100232.50;5024507;28;20673;-74
2022/12/25 07:05:48;;;;;;;2.90;2.00;;;;;;;7.96;100.00;100242.78;5020561;28;20273;-73
2022/12/25 07:08:13;;;;;;;2.37;1.93;;;;;;;7.98;100.00;100233.34;5025769;28;20192;-73
2022/12/25 07:10:39;;;;;;;4.10;2.00;;;;;;;7.99;100.00;100227.34;5024920;28;20201;-73
2022/12/25 07:13:04;;;;;;;3.23;2.03;;;;;;;8.00;100.00;100219.63;5022819;28;20195;-74
2022/12/25 07:15:29;;;;;;;3.37;2.10;;;;;;;8.02;100.00;100211.88;5024752;28;20219;-73
2022/12/25 07:17:55;;;;;;;2.93;2.07;;;;;;;8.03;100.00;100205.88;5023216;28;20195;-73
2022/12/25 07:20:20;;;;;;;2.43;1.77;;;;;;;8.03;100.00;100200.72;5020533;28;20184;-73
2022/12/25 07:22:45;;;;;;;2.40;1.90;;;;;;;8.02;100.00;100211.88;5017709;28;20202;-73
2022/12/25 07:25:11;;;;;;;2.57;1.63;;;;;;;8.02;100.00;100211.88;5022109;28;20904;-73
2022/12/25 07:27:36;;;;;;;2.07;1.87;;;;;;;8.03;100.00;100203.28;5019472;28;22117;-73
2022/12/25 07:30:01;;;;;;;2.03;1.70;;;;;;;8.03;100.00;100204.13;5020983;28;20225;-73
2022/12/25 07:32:30;;;;;;;2.40;1.90;;;;;;;8.03;100.00;100198.97;5021658;28;20184;-73
2022/12/25 07:34:56;;;;;;;3.23;1.93;;;;;;;8.01;100.00;100203.31;5029207;28;20274;-72
2022/12/25 07:37:21;;;;;;;2.03;1.60;;;;;;;7.98;100.00;100211.03;5028051;28;20292;-73
2022/12/25 07:39:47;;;;;;;2.17;1.93;;;;;;;7.94;100.00;100217.03;5027230;28;20188;-73
2022/12/25 07:42:12;;;;;;;4.10;2.20;;;;;;;7.91;100.00;100214.44;5027474;28;20199;-74
2022/12/25 07:44:37;;;;;;;2.10;1.93;;;;;;;7.87;100.00;100221.31;5027883;28;20277;-74
2022/12/25 07:47:02;;;;;;;2.37;1.97;;;;;;;7.87;100.00;100223.91;5026392;28;20207;-73
2022/12/25 07:49:28;;;;;;;2.00;1.70;;;;;;;7.88;100.00;100227.31;5027487;28;20183;-73
2022/12/25 07:51:53;;;;;;;2.20;1.87;;;;;;;7.88;100.00;100237.63;5027239;28;20184;-72
2022/12/25 07:54:19;;;;;;;3.00;1.90;;;;;;;7.90;100.00;100239.38;5030963;28;20191;-73
2022/12/25 07:56:45;;;;;;;2.97;1.87;;;;;;;7.90;100.00;100248.78;5028065;28;20294;-74
2022/12/25 07:59:10;;;;;;;3.13;1.90;;;;;;;7.92;100.00;100249.66;5029383;28;20643;-73
2022/12/25 08:01:36;;;;;;;3.63;2.10;;;;;;;7.96;100.00;100250.53;5027549;28;21003;-73
2022/12/25 08:04:01;;;;;;;2.17;1.43;;;;;;;7.96;100.00;100246.25;5029378;28;20244;-73
2022/12/25 08:06:32;;;;;;;2.20;1.80;;;;;;;8.00;100.00;100249.66;5029972;28;20303;-73
2022/12/25 08:09:04;;;;;;;4.13;2.00;;;;;;;8.03;100.00;100250.53;5022595;28;20606;-73
2022/12/25 08:11:29;;;;;;;3.33;1.93;;;;;;;8.09;100.00;100247.13;5018453;28;20192;-73
2022/12/25 08:13:54;;;;;;;2.60;1.90;;;;;;;8.16;100.00;100255.72;5016026;28;20188;-74
2022/12/25 08:16:20;;;;;;;1.70;1.60;;;;;;;8.23;100.00;100257.41;5018005;28;20238;-74
2022/12/25 08:18:45;;;;;;;2.40;2.00;;;;;;;8.31;100.00;100255.72;5023742;28;20278;-74
2022/12/25 08:21:13;;;;;;;4.00;2.10;;;;;;;8.38;100.00;100262.56;5020847;28;20194;-73
2022/12/25 08:23:45;;;;;;;2.97;2.23;;;;;;;8.47;100.00;100253.13;5013654;28;20227;-73
2022/12/25 08:26:16;;;;;;;2.97;2.17;;;;;;;8.51;100.00;100245.41;5015615;28;20227;-75
2022/12/25 08:28:42;;;;;;;2.73;2.10;;;;;;;8.54;100.00;100247.13;5019338;28;20715;-76
2022/12/25 08:31:14;;;;;;;4.10;2.20;;;;;;;8.58;100.00;100237.66;5018585;28;20694;-74
2022/12/25 08:33:41;;;;;;;2.37;2.17;;;;;;;8.59;100.00;100229.06;5021136;28;20183;-76
2022/12/25 08:36:09;;;;;;;4.27;2.80;;;;;;;8.58;100.00;100217.03;5016402;28;20316;-77
2022/12/25 08:38:34;;;;;;;4.57;2.47;;;;;;;8.53;100.00;100197.28;5022235;28;20240;-75
2022/12/25 08:40:59;;;;;;;3.90;2.50;;;;;;;8.48;100.00;100174.91;5023592;28;20183;-76
2022/12/25 08:43:25;;;;;;;2.97;2.50;;;;;;;8.45;100.00;100178.31;5020914;28;20972;-77
2022/12/25 08:45:50;;;;;;;2.93;2.40;;;;;;;8.48;100.00;100192.97;5016202;28;20262;-77
2022/12/25 08:48:16;;;;;;;2.47;2.20;;;;;;;8.51;100.00;100205.84;5022765;28;20183;-76
2022/12/25 08:50:51;;;;;;;2.50;2.30;;;;;;;8.58;100.00;100196.38;5035344;28;20550;-76
2022/12/25 08:53:17;;;;;;;3.03;2.53;;;;;;;8.63;100.00;100194.66;5024141;28;20686;-74
2022/12/25 08:55:43;;;;;;;3.97;2.50;;;;;;;8.71;100.00;100197.22;5024665;28;20227;-76
2022/12/25 08:58:08;;;;;;;3.00;2.70;;;;;;;8.80;100.00;100200.63;5026958;28;20237;-74
2022/12/25 09:00:35;;;;;;;2.87;2.40;;;;;;;8.90;100.00;100205.75;5020205;28;20191;-76
2022/12/25 09:03:00;;;;;;;3.07;2.57;;;;;;;9.00;100.00;100204.84;5022649;28;20191;-74
2022/12/25 09:05:26;;;;;;;3.13;2.57;;;;;;;9.09;100.00;100198.78;5012284;28;20604;-74
2022/12/25 09:07:51;;;;;;;2.70;2.50;;;;;;;9.16;100.00;100205.66;5016986;28;20820;-74
2022/12/25 09:10:16;;;;;;;3.37;2.60;;;;;;;9.26;100.00;100214.22;5017653;28;20668;-74
2022/12/25 09:12:42;;;;;;;4.40;2.90;;;;;;;9.34;100.00;100216.78;5018388;28;20188;-74
2022/12/25 09:15:07;;;;;;;3.17;2.60;;;;;;;9.42;100.00;100217.56;5018044;28;21084;-74
2022/12/25 09:17:33;;;;;;;2.63;2.43;;;;;;;9.51;100.00;100227.00;5020985;28;20543;-74
2022/12/25 09:19:58;;;;;;;4.07;2.50;;;;;;;9.60;100.00;100232.13;5023816;28;20191;-75
2022/12/25 09:22:24;;;;;;;3.47;2.47;;;;;;;9.71;100.00;100234.63;5023907;28;20735;-75
2022/12/25 09:24:49;;;;;;;3.87;2.63;;;;;;;9.80;100.00;100237.19;5022581;28;20318;-75
2022/12/25 09:27:15;;;;;;;3.60;2.20;;;;;;;9.91;100.00;100242.25;5017682;28;20206;-74
2022/12/25 09:29:40;;;;;;;3.93;3.00;;;;;;;10.05;100.00;100237.88;5014418;28;20189;-75
2022/12/25 09:32:06;;;;;;;4.70;4.13;;;;;;;10.24;100.00;100242.03;5020086;28;20192;-75
2022/12/25 09:34:32;;;;;;;4.23;3.70;;;;;;;10.34;100.00;100236.78;5030675;28;20246;-75
2022/12/25 09:36:57;;;;;;;3.53;3.23;;;;;;;10.37;100.00;100226.38;5020703;28;21118;-75
2022/12/25 09:39:22;;;;;;;3.17;2.87;;;;;;;10.30;100.00;100222.13;5018054;28;20612;-73
2022/12/25 09:41:57;;;;;;;2.70;2.50;;;;;;;10.21;100.00;100223.06;5021292;28;20245;-75
2022/12/25 09:44:43;;;;;;;2.43;2.17;;;;;;;10.10;100.00;100230.06;4997687;28;20633;-74
2022/12/25 09:47:37;;;;;;;2.43;2.23;;;;;;;10.06;100.00;100223.19;5014445;28;20221;-75
2022/12/25 09:50:17;;;;;;;3.40;2.40;;;;;;;10.06;100.00;100210.28;5019504;28;20687;-74
2022/12/25 09:53:00;;;;;;;3.50;2.27;;;;;;;10.10;100.00;100213.69;5026886;28;20277;-74
2022/12/25 09:55:29;;;;;;;3.40;2.30;;;;;;;10.14;100.00;100210.22;5028298;28;20195;-74
2022/12/25 09:58:00;;;;;;;2.07;1.90;;;;;;;10.17;100.00;100203.28;5015429;28;20221;-74
2022/12/25 10:00:39;;;;;;;4.77;2.60;;;;;;;10.22;100.00;100198.94;5004072;28;20191;-74
2022/12/25 10:03:14;;;;;;;2.33;1.90;;;;;;;10.25;100.00;100195.44;5027665;28;20183;-74
2022/12/25 10:06:02;;;;;;;2.40;2.20;;;;;;;10.28;100.00;100197.16;5026331;28;20219;-75
2022/12/25 10:08:46;;;;;;;2.23;2.03;;;;;;;10.28;100.00;100192.00;5016772;28;20186;-74
2022/12/25 10:11:27;;;;;;;2.30;2.00;;;;;;;10.26;100.00;100188.56;5033730;28;20179;-74
2022/12/25 10:14:05;;;;;;;3.23;2.20;;;;;;;10.24;100.00;100179.97;5028644;28;20615;-74
2022/12/25 10:16:45;;;;;;;3.00;2.47;;;;;;;10.25;100.00;100185.09;5024617;28;20288;-74
2022/12/25 10:19:25;;;;;;;2.30;2.10;;;;;;;10.27;100.00;100180.78;5024755;28;20186;-74
2022/12/25 10:21:56;;;;;;;2.60;2.10;;;;;;;10.32;100.00;100172.97;5018095;28;20183;-74
2022/12/25 10:24:35;;;;;;;2.30;1.70;;;;;;;10.43;100.00;100178.06;5022326;28;20655;-74
2022/12/25 10:27:10;;;;;;;3.30;2.10;;;;;;;10.59;100.00;100169.28;5018632;28;20210;-74
2022/12/25 10:29:37;;;;;;;1.83;1.67;;;;;;;10.75;100.00;100162.19;5020420;28;20278;-74
2022/12/25 10:32:03;;;;;;;3.53;1.93;;;;;;;10.94;100.00;100156.78;5039147;28;20219;-74
2022/12/25 10:34:28;;;;;;;2.43;1.87;;;;;;;11.10;100.00;100163.50;5023901;28;20752;-73
2022/12/25 10:36:54;;;;;;;2.30;1.90;;;;;;;11.30;100.00;100152.00;5021312;28;20203;-74
2022/12/25 10:39:25;;;;;;;2.43;2.23;;;;;;;11.49;100.00;100159.53;5019929;28;20184;-74
2022/12/25 10:42:09;;;;;;;2.00;1.80;;;;;;;11.66;100.00;100156.66;5021617;28;20188;-74
2022/12/25 10:44:35;;;;;;;2.00;1.80;;;;;;;11.77;100.00;100139.19;5024952;28;20295;-75
2022/12/25 10:47:02;;;;;;;1.60;1.40;;;;;;;11.84;100.00;100152.91;5024637;28;20345;-74
2022/12/25 10:49:32;;;;;;;1.70;1.60;;;;;;;11.88;100.00;100147.63;5004444;28;20208;-74
2022/12/25 10:51:57;;;;;;;1.77;1.57;;;;;;;11.90;100.00;100150.22;5022239;28;20741;-75
2022/12/25 10:54:29;;;;;;;3.00;1.60;;;;;;;11.90;100.00;100148.47;5025005;28;20181;-73
2022/12/25 10:57:11;;;;;;;3.10;1.63;;;;;;;11.92;100.00;100137.22;5023322;28;20220;-74
2022/12/25 10:59:46;;;;;;;1.50;1.40;;;;;;;11.96;100.00;100139.72;5029780;28;20579;-74
2022/12/25 11:02:18;;;;;;;1.60;1.50;;;;;;;12.03;100.00;100135.31;5022744;28;20275;-74
2022/12/25 11:04:43;;;;;;;2.87;1.53;;;;;;;12.12;100.00;100132.59;5018727;28;20196;-74
2022/12/25 11:07:18;;;;;;;1.80;1.43;;;;;;;12.23;100.00;100132.41;5024906;28;20203;-75
2022/12/25 11:10:00;;;;;;;2.17;1.60;;;;;;;12.33;100.00;100123.56;5031772;28;20187;-74
2022/12/25 11:12:40;;;;;;;1.83;1.43;;;;;;;12.41;100.00;100115.63;5017536;28;20209;-74
2022/12/25 11:15:38;;;;;;;2.47;1.83;;;;;;;12.42;100.00;100113.88;5030252;28;20225;-74
2022/12/25 11:18:21;;;;;;;2.20;1.47;;;;;;;12.40;100.00;100113.06;5021909;28;20195;-74
2022/12/25 11:20:48;;;;;;;1.80;1.70;;;;;;;12.35;100.00;100094.97;5020187;28;20242;-74
2022/12/25 11:23:19;;;;;;;3.20;1.37;;;;;;;12.35;100.00;100084.59;5019545;28;20192;-74
2022/12/25 11:25:54;;;;;;;2.10;1.83;;;;;;;12.41;100.00;100081.00;5021003;28;20239;-74
2022/12/25 11:28:19;;;;;;;1.90;1.70;;;;;;;12.46;100.00;100084.38;5027238;28;20255;-74
2022/12/25 11:30:52;;;;;;;1.90;1.50;;;;;;;12.52;100.00;100078.22;5027599;28;20762;-74
2022/12/25 11:33:19;;;;;;;2.40;1.83;;;;;;;12.60;100.00;100081.50;5022424;28;20193;-74
2022/12/25 11:35:49;;;;;;;2.27;1.73;;;;;;;12.74;100.00;100078.63;5017631;28;20241;-74
2022/12/25 11:38:14;;;;;;;1.80;1.70;;;;;;;12.93;100.00;100077.34;5018991;28;20191;-74
2022/12/25 11:40:53;;;;;;;3.30;2.33;;;;;;;13.09;100.00;100077.84;5018164;28;20181;-75
2022/12/25 11:43:31;;;;;;;2.37;2.00;;;;;;;13.20;100.00;100074.16;5021811;28;20221;-74
2022/12/25 11:46:32;;;;;;;2.23;1.70;;;;;;;13.21;100.00;100068.91;5020054;28;20226;-74
2022/12/25 11:49:05;;;;;;;2.20;1.90;;;;;;;13.18;100.00;100068.97;5013021;28;20237;-74
2022/12/25 11:51:37;;;;;;;2.37;2.17;;;;;;;13.24;100.00;100054.97;5027507;28;20286;-75
2022/12/25 11:54:10;;;;;;;2.70;2.50;;;;;;;13.36;100.00;100053.84;5015536;28;20191;-74
2022/12/25 11:56:36;;;;;;;2.57;2.37;;;;;;;13.46;100.00;100044.94;5015908;28;20218;-73
2022/12/25 11:59:24;;;;;;;2.57;2.37;;;;;;;13.59;100.00;100048.09;5018960;28;20193;-74
2022/12/25 12:02:08;;;;;;;2.80;2.60;;;;;;;13.69;100.00;100035.72;5019903;28;20241;-73
2022/12/25 12:04:40;;;;;;;2.20;2.00;;;;;;;13.70;100.00;100038.28;5024027;28;20306;-74
2022/12/25 12:07:17;;;;;;;3.23;2.73;;;;;;;13.69;100.00;100023.56;5025393;28;20226;-75
2022/12/25 12:10:01;;;;;;;2.60;2.40;;;;;;;13.65;100.00;100019.34;5025042;28;20277;-74
2022/12/25 12:12:45;;;;;;;2.83;2.60;;;;;;;13.60;100.00;100020.38;5001303;28;20540;-73
2022/12/25 12:15:18;;;;;;;2.30;2.10;;;;;;;13.51;100.00;100019.69;5021804;28;20198;-74
2022/12/25 12:17:43;;;;;;;2.47;2.17;;;;;;;13.45;100.00;100027.66;5026297;28;20178;-74
2022/12/25 12:20:33;;;;;;;2.73;2.40;;;;;;;13.38;100.00;100026.94;5024518;28;20190;-74
2022/12/25 12:23:02;;;;;;;2.90;2.63;;;;;;;13.21;100.00;100035.13;5012712;28;20630;-74
2022/12/25 12:25:28;;;;;;;3.23;2.93;;;;;;;13.10;100.00;100035.38;5014515;28;20218;-74
2022/12/25 12:27:57;;;;;;;3.50;2.77;;;;;;;13.06;100.00;100040.69;5022459;28;20188;-74
2022/12/25 12:30:22;;;;;;;2.60;2.40;;;;;;;13.03;100.00;100044.22;5033868;28;20244;-73
2022/12/25 12:32:54;;;;;;;3.93;2.80;;;;;;;13.02;100.00;100047.69;5028492;28;20597;-74
2022/12/25 12:35:24;;;;;;;2.97;2.70;;;;;;;13.00;100.00;100049.47;5022041;28;20179;-74
2022/12/25 12:38:00;;;;;;;5.07;3.80;;;;;;;12.98;100.00;100051.25;5019551;28;20293;-74
2022/12/25 12:40:32;;;;;;;4.20;3.80;;;;;;;12.96;100.00;100048.69;5016078;28;20206;-75
2022/12/25 12:42:58;;;;;;;3.60;3.30;;;;;;;12.95;100.00;100034.00;5019810;28;20183;-75
2022/12/25 12:45:31;;;;;;;3.57;3.27;;;;;;;12.97;100.00;100020.97;5013969;28;20233;-74
2022/12/25 12:47:57;;;;;;;2.70;2.50;;;;;;;12.96;100.00;100014.06;5013601;28;20188;-75
2022/12/25 12:50:33;;;;;;;2.70;2.50;;;;;;;12.96;100.00;100014.94;5020299;28;20548;-74
2022/12/25 12:53:14;;;;;;;3.10;2.80;;;;;;;12.95;100.00;100007.16;5020736;28;20345;-75
2022/12/25 12:55:39;;;;;;;2.90;2.57;;;;;;;12.95;100.00;100004.56;5022340;28;20218;-74
2022/12/25 12:58:05;;;;;;;2.50;2.30;;;;;;;12.95;100.00;100015.81;5000949;28;21113;-74
2022/12/25 13:00:45;;;;;;;3.47;3.17;;;;;;;12.94;100.00;100013.25;5019949;28;20714;-74
2022/12/25 13:03:34;;;;;;;10.27;9.17;;;;;;;12.94;100.00;100010.66;5019424;28;20234;-75
2022/12/25 13:06:08;;;;;;;6.53;5.93;;;;;;;12.94;100.00;100021.03;5018594;28;20619;-74
2022/12/25 13:08:40;;;;;;;4.80;4.40;;;;;;;12.94;100.00;100023.63;5018824;28;20186;-74
2022/12/25 13:11:13;;;;;;;4.50;4.10;;;;;;;12.96;100.00;100024.44;5020728;28;20264;-75
2022/12/25 13:13:41;;;;;;;3.50;3.20;;;;;;;12.99;100.00;100026.16;5021027;28;20180;-74